Terminal Aerodrome Forecast
Issued by NWS

Home | Current Version | Previous Version | Text Only | Print | Product List | Glossary On
Versions: 1 2 3 4 5 6 7 8 9 10 11 12 13 14 15 16 17 18 19 20 21 22
000
FTUS43 KBIS 242000 AAA
TAFMOT
TAF AMD
KMOT 242044Z 2421/2518 15017G24KT P6SM SCT090
      TEMPO 2421/2422 5SM -TSRA BKN070CB
     FM250200 VRB05KT P6SM VCTS SCT050CB BKN090
     FM250900 30014G20KT P6SM SCT070 BKN090
     FM251200 27012KT P6SM SCT090=

USA.gov is the U.S. government's official web portal to all federal, state and local government web resources and services.